createdAt,value
2023-01-27T00:12:43.199Z,1.20
2023-01-27T00:15:14.026Z,1.10
2023-01-27T00:20:12.588Z,1.00
2023-01-27T01:00:46.626Z,1.20
2023-01-27T01:15:41.119Z,1.10
2023-01-27T01:18:11.636Z,1.20
2023-01-27T01:20:44.457Z,1.20
2023-01-27T01:23:14.028Z,1.30
2023-01-27T01:35:40.270Z,1.00
2023-01-27T01:40:45.557Z,1.10
2023-01-27T01:43:17.530Z,1.20
2023-01-27T01:46:00.560Z,1.20
2023-01-27T01:48:57.447Z,1.30
2023-01-27T01:51:35.986Z,1.30
2023-01-27T01:54:23.105Z,1.30
2023-01-27T01:57:06.811Z,1.30
2023-01-27T01:59:50.311Z,1.20
2023-01-27T02:02:24.431Z,1.20
2023-01-27T02:07:41.255Z,1.10
2023-01-27T02:10:09.976Z,1.30
2023-01-27T02:15:08.710Z,1.10
2023-01-27T02:20:45.164Z,1.20
2023-01-27T02:23:37.199Z,1.00
2023-01-27T02:36:15.580Z,1.20
2023-01-27T02:38:54.157Z,1.30
2023-01-27T02:41:47.898Z,1.30
2023-01-27T02:46:48.335Z,1.30
2023-01-27T03:06:40.798Z,1.40
2023-01-27T03:14:37.539Z,1.20
2023-01-27T03:32:31.593Z,1.20
2023-01-27T03:37:47.631Z,1.20
2023-01-27T03:46:10.127Z,1.30
2023-01-27T03:51:09.541Z,1.20
2023-01-27T03:56:07.461Z,0.90
2023-01-27T03:58:38.754Z,1.10
2023-01-27T04:01:14.487Z,1.10
2023-01-27T04:04:01.323Z,1.10
2023-01-27T04:06:50.640Z,1.10
2023-01-27T04:09:31.817Z,0.90
2023-01-27T04:12:02.356Z,1.20
2023-01-27T04:17:14.172Z,1.40
2023-01-27T04:22:13.950Z,1.20
2023-01-27T04:27:16.750Z,1.20
2023-01-27T04:32:14.747Z,1.20
2023-01-27T04:57:03.957Z,1.10
2023-01-27T05:46:42.638Z,1.00
2023-01-27T05:51:41.080Z,1.10
2023-01-27T06:04:06.680Z,0.50
2023-01-27T06:31:23.298Z,1.30
2023-01-27T06:33:52.767Z,1.30
2023-01-27T06:36:23.992Z,1.30
2023-01-27T06:43:58.279Z,1.30
2023-01-27T07:11:15.703Z,1.50
2023-01-27T07:56:11.993Z,1.60
2023-01-27T07:58:41.036Z,1.70
2023-01-27T08:01:14.254Z,1.60
2023-01-27T08:06:12.903Z,1.60
2023-01-27T08:11:14.025Z,1.60
2023-01-27T08:16:15.320Z,1.60
2023-01-27T08:21:14.253Z,1.50
2023-01-27T08:23:42.776Z,1.50
2023-01-27T08:28:41.239Z,1.40
2023-01-27T08:31:16.220Z,1.60
2023-01-27T08:33:47.518Z,1.60
2023-01-27T08:36:18.430Z,1.60
2023-01-27T08:38:49.259Z,1.70
2023-01-27T08:41:26.632Z,1.60
2023-01-27T08:43:56.396Z,1.70
2023-01-27T09:01:17.735Z,2.00
2023-01-27T09:08:44.798Z,2.00
2023-01-27T09:11:16.794Z,2.10
2023-01-27T09:21:11.624Z,2.20
2023-01-27T09:36:22.655Z,2.50
2023-01-27T09:39:01.639Z,2.20
2023-01-27T09:42:02.147Z,2.30
2023-01-27T09:44:50.265Z,2.50
2023-01-27T09:48:06.646Z,2.50
2023-01-27T09:50:46.384Z,2.60
2023-01-27T09:53:36.366Z,2.50
2023-01-27T09:56:24.419Z,2.60
2023-01-27T09:59:32.617Z,2.60
2023-01-27T10:02:53.516Z,2.50
2023-01-27T10:05:30.776Z,2.40
2023-01-27T10:08:28.722Z,2.40
2023-01-27T10:11:50.175Z,2.60
2023-01-27T10:15:00.562Z,2.70
2023-01-27T10:17:45.099Z,2.80
2023-01-27T10:20:36.038Z,2.70
2023-01-27T10:23:54.725Z,3.10
2023-01-27T10:26:53.076Z,2.70
2023-01-27T10:29:36.079Z,2.70
2023-01-27T10:32:29.080Z,2.70
2023-01-27T10:35:00.283Z,2.80
2023-01-27T10:38:24.532Z,2.80
2023-01-27T10:48:48.645Z,2.70
2023-01-27T10:51:34.614Z,3.50
2023-01-27T10:54:15.577Z,2.80
2023-01-27T10:57:07.529Z,2.70
2023-01-27T11:00:46.511Z,2.60
2023-01-27T11:03:00.435Z,2.60
2023-01-27T11:05:43.836Z,2.40
2023-01-27T11:08:20.518Z,2.80
2023-01-27T11:11:12.795Z,2.80
2023-01-27T11:13:41.973Z,2.80
2023-01-27T11:16:21.540Z,2.80
2023-01-27T11:19:02.115Z,2.90
2023-01-27T11:21:32.812Z,2.90
2023-01-27T11:24:23.144Z,2.90
2023-01-27T11:27:04.020Z,2.80
2023-01-27T11:29:50.319Z,2.80
2023-01-27T11:32:49.816Z,3.00
2023-01-27T11:37:54.826Z,2.70
2023-01-27T11:40:35.511Z,3.70
2023-01-27T11:45:37.523Z,3.20
2023-01-27T11:48:14.287Z,3.20
2023-01-27T11:50:44.624Z,3.10
2023-01-27T11:53:36.808Z,2.90
2023-01-27T11:56:11.443Z,3.20
2023-01-27T11:59:02.793Z,3.10
2023-01-27T12:01:58.263Z,3.20
2023-01-27T12:07:58.061Z,3.30
2023-01-27T12:10:38.877Z,3.10
2023-01-27T12:13:18.959Z,2.90
2023-01-27T12:16:03.661Z,3.40
2023-01-27T12:18:36.952Z,3.10
2023-01-27T12:21:10.493Z,3.40
2023-01-27T12:23:49.140Z,3.40
2023-01-27T12:28:56.363Z,3.00
2023-01-27T12:31:30.233Z,3.30
2023-01-27T12:36:44.031Z,3.10
2023-01-27T12:39:57.156Z,3.40
2023-01-27T12:42:44.415Z,3.20
2023-01-27T12:45:31.415Z,3.20
2023-01-27T12:50:35.095Z,3.40
2023-01-27T12:53:14.001Z,3.50
2023-01-27T12:58:37.838Z,3.30
2023-01-27T13:01:36.450Z,3.50
2023-01-27T13:09:04.591Z,3.40
2023-01-27T13:11:38.649Z,3.40
2023-01-27T13:14:14.393Z,3.40
2023-01-27T13:19:19.566Z,3.60
2023-01-27T13:21:55.266Z,3.50
2023-01-27T13:24:40.696Z,3.80
2023-01-27T13:27:18.019Z,3.70
2023-01-27T13:29:59.113Z,3.70
2023-01-27T13:32:32.385Z,3.80
2023-01-27T13:35:27.580Z,3.70
2023-01-27T13:40:46.704Z,3.70
2023-01-27T13:43:41.654Z,3.70
2023-01-27T13:46:35.355Z,3.70
2023-01-27T13:49:39.260Z,3.90
2023-01-27T13:52:08.266Z,3.80
2023-01-27T13:57:36.582Z,3.40
2023-01-27T14:00:32.024Z,3.70
2023-01-27T14:06:30.294Z,3.90
2023-01-27T14:09:43.161Z,3.80
2023-01-27T14:12:55.757Z,3.50
2023-01-27T14:15:50.529Z,3.90
2023-01-27T14:18:46.167Z,3.90
2023-01-27T14:21:45.435Z,3.70
2023-01-27T14:24:47.569Z,3.60
2023-01-27T14:27:19.243Z,4.20
2023-01-27T14:32:33.631Z,3.70
2023-01-27T14:35:23.241Z,3.60
2023-01-27T14:41:10.411Z,3.70
2023-01-27T14:44:07.372Z,3.80
2023-01-27T14:47:06.134Z,3.30
2023-01-27T14:49:54.422Z,3.80
2023-01-27T14:55:40.759Z,3.40
2023-01-27T14:58:58.202Z,3.50
2023-01-27T15:01:53.269Z,3.60
2023-01-27T15:04:30.819Z,3.60
2023-01-27T15:07:17.010Z,3.30
2023-01-27T15:10:27.313Z,3.60
2023-01-27T15:13:19.538Z,3.30
2023-01-27T15:16:46.827Z,3.70
2023-01-27T15:19:37.470Z,3.60
2023-01-27T15:25:27.753Z,3.70
2023-01-27T15:30:34.584Z,3.40
2023-01-27T15:38:33.873Z,3.50
2023-01-27T15:41:08.904Z,3.50
2023-01-27T15:43:44.762Z,3.30
2023-01-27T15:46:45.084Z,3.20
2023-01-27T15:49:22.710Z,3.60
2023-01-27T15:51:55.608Z,3.70
2023-01-27T15:54:33.266Z,3.60
2023-01-27T15:57:06.417Z,3.60
2023-01-27T15:59:58.790Z,3.60
2023-01-27T16:02:33.640Z,3.70
2023-01-27T16:05:45.817Z,3.90
2023-01-27T16:08:17.433Z,3.70
2023-01-27T16:13:28.823Z,3.70
2023-01-27T16:16:19.138Z,3.60
2023-01-27T16:18:54.135Z,3.70
2023-01-27T16:21:58.553Z,3.70
2023-01-27T16:24:52.968Z,3.70
2023-01-27T16:30:24.189Z,3.60
2023-01-27T16:33:16.171Z,3.50
2023-01-27T16:35:54.550Z,3.60
2023-01-27T16:38:34.538Z,3.30
2023-01-27T16:41:09.897Z,3.70
2023-01-27T16:43:52.647Z,3.70
2023-01-27T16:46:37.787Z,3.70
2023-01-27T16:49:40.704Z,3.80
2023-01-27T16:52:40.738Z,3.70
2023-01-27T16:55:22.980Z,3.80
2023-01-27T16:57:52.621Z,3.80
2023-01-27T17:00:27.204Z,4.30
2023-01-27T17:02:59.280Z,3.80
2023-01-27T17:05:28.580Z,3.80
2023-01-27T17:08:14.897Z,4.40
2023-01-27T17:10:57.558Z,3.90
2023-01-27T17:13:45.716Z,4.20
2023-01-27T17:16:34.473Z,3.90
2023-01-27T17:19:25.875Z,3.70
2023-01-27T17:22:01.589Z,4.00
2023-01-27T17:24:49.852Z,4.00
2023-01-27T17:27:27.884Z,4.10
2023-01-27T17:30:24.316Z,3.90
2023-01-27T17:32:59.115Z,4.00
2023-01-27T17:35:33.091Z,4.00
2023-01-27T17:38:25.570Z,3.90
2023-01-27T17:40:56.394Z,3.90
2023-01-27T17:43:36.747Z,4.40
2023-01-27T17:46:20.579Z,4.20
2023-01-27T17:49:05.042Z,3.90
2023-01-27T17:51:45.484Z,3.60
2023-01-27T17:54:41.504Z,3.90
2023-01-27T17:57:32.435Z,4.00
2023-01-27T18:00:11.480Z,3.90
2023-01-27T18:02:57.213Z,3.60
2023-01-27T18:05:31.698Z,3.80
2023-01-27T18:10:35.033Z,3.70
2023-01-27T18:13:21.689Z,3.50
2023-01-27T18:26:24.842Z,3.60
2023-01-27T18:29:03.835Z,3.90
2023-01-27T18:31:57.521Z,3.90
2023-01-27T18:37:07.285Z,3.80
2023-01-27T18:39:43.572Z,3.70
2023-01-27T18:42:21.516Z,3.90
2023-01-27T18:44:54.715Z,3.90
2023-01-27T18:47:28.755Z,3.80
2023-01-27T18:55:12.699Z,3.70
2023-01-27T19:00:13.546Z,4.00
2023-01-27T19:02:46.670Z,3.90
2023-01-27T19:05:23.150Z,4.20
2023-01-27T19:10:30.018Z,3.70
2023-01-27T19:13:01.780Z,3.70
2023-01-27T19:15:35.997Z,3.70
2023-01-27T19:18:23.053Z,3.30
2023-01-27T19:23:23.311Z,3.70
2023-01-27T19:25:56.266Z,3.70
2023-01-27T19:28:38.152Z,3.70
2023-01-27T19:31:08.112Z,3.70
2023-01-27T19:33:38.763Z,4.20
2023-01-27T19:36:13.006Z,3.70
2023-01-27T19:46:17.849Z,3.80
2023-01-27T19:56:21.825Z,3.80
2023-01-27T19:58:54.081Z,3.80
2023-01-27T20:01:25.680Z,3.80
2023-01-27T20:03:55.318Z,4.00
2023-01-27T20:06:29.881Z,3.80
2023-01-27T20:09:00.420Z,3.90
2023-01-27T20:11:41.284Z,3.80
2023-01-27T20:14:20.485Z,3.70
2023-01-27T20:19:18.834Z,4.00
2023-01-27T20:21:48.374Z,3.80
2023-01-27T20:24:19.717Z,3.80
2023-01-27T20:44:13.474Z,3.70
2023-01-27T21:14:01.377Z,3.70
2023-01-27T21:21:30.578Z,3.70
2023-01-27T21:24:01.273Z,3.60
2023-01-27T21:34:01.193Z,3.70
2023-01-27T21:44:41.738Z,3.60
2023-01-27T21:47:16.984Z,3.70
2023-01-27T21:50:03.135Z,3.70
2023-01-27T21:52:49.893Z,3.60
2023-01-27T21:55:30.651Z,3.60
2023-01-27T22:00:29.801Z,3.70
2023-01-27T22:03:04.548Z,3.70
2023-01-27T22:05:35.098Z,3.60
2023-01-27T22:08:06.471Z,3.60
2023-01-27T22:13:05.715Z,3.60
2023-01-27T22:42:51.077Z,3.50
2023-01-27T22:50:18.412Z,3.00
2023-01-27T22:57:47.884Z,3.30
2023-01-27T23:00:16.925Z,3.50
2023-01-27T23:10:12.249Z,3.50
2023-01-27T23:15:10.021Z,3.40
2023-01-27T23:27:35.265Z,3.20
